Time;durP1;ratioP1;P1;durP2;ratioP2;P2;SDS_P1;SDS_P2;PMS_P1;PMS_P2;Temp;Humidity;BMP_temperature;BMP_pressure;BME280_temperature;BME280_humidity;BME280_pressure;Samples;Min_cycle;Max_cycle;Signal;HPM_P1;HPM_P2
2023/11/25 00:00:22;;;;;;;57.42;54.05;;;8.00;99.90;;;;;;4990628;28;20403;-70
2023/11/25 00:02:49;;;;;;;44.75;41.92;;;7.90;99.90;;;;;;4991576;28;20055;-70
2023/11/25 00:05:15;;;;;;;39.30;36.72;;;7.90;99.90;;;;;;4984340;28;20026;-70
2023/11/25 00:07:41;;;;;;;55.72;51.97;;;7.80;99.90;;;;;;4992389;28;20030;-70
2023/11/25 00:10:08;;;;;;;52.17;48.85;;;7.80;99.90;;;;;;4990261;28;20038;-70
2023/11/25 00:12:35;;;;;;;63.05;59.22;;;7.70;99.90;;;;;;4991905;28;20035;-69
2023/11/25 00:15:02;;;;;;;47.72;44.53;;;7.70;99.90;;;;;;4984345;28;20472;-70
2023/11/25 00:17:29;;;;;;;27.27;25.27;;;7.70;99.90;;;;;;4991426;28;20046;-69
2023/11/25 00:19:56;;;;;;;39.60;36.75;;;7.60;99.90;;;;;;4990750;28;20460;-69
2023/11/25 00:22:22;;;;;;;29.27;27.55;;;7.60;99.90;;;;;;4988475;28;20053;-70
2023/11/25 00:24:49;;;;;;;33.15;30.95;;;7.60;99.90;;;;;;4970506;28;20046;-70
2023/11/25 00:27:15;;;;;;;23.23;21.27;;;7.60;99.90;;;;;;4988283;28;20061;-69
2023/11/25 00:29:41;;;;;;;26.52;24.73;;;7.60;99.90;;;;;;4991196;28;20031;-70
2023/11/25 00:32:07;;;;;;;23.08;21.08;;;7.60;99.90;;;;;;4990540;28;20034;-69
2023/11/25 00:34:33;;;;;;;27.10;25.35;;;7.50;99.90;;;;;;4990263;28;20038;-69
2023/11/25 00:36:59;;;;;;;27.48;25.30;;;7.50;99.90;;;;;;4991105;28;20030;-70
2023/11/25 00:39:27;;;;;;;22.52;20.75;;;7.40;99.90;;;;;;4991774;28;20034;-75
2023/11/25 00:41:53;;;;;;;20.55;19.00;;;7.40;99.90;;;;;;4992150;28;20391;-75
2023/11/25 00:44:19;;;;;;;22.65;20.75;;;7.40;99.90;;;;;;4991780;28;20037;-75
2023/11/25 00:46:45;;;;;;;23.25;21.33;;;7.40;99.90;;;;;;4991098;28;20038;-74
2023/11/25 00:49:13;;;;;;;21.08;19.33;;;7.30;99.90;;;;;;4992512;28;20357;-74
2023/11/25 00:51:39;;;;;;;20.00;18.67;;;7.40;99.90;;;;;;4991510;28;20526;-75
2023/11/25 00:54:05;;;;;;;20.02;18.45;;;7.40;99.90;;;;;;4990610;28;20054;-74
2023/11/25 00:56:31;;;;;;;20.02;18.33;;;7.40;99.90;;;;;;4991571;28;20395;-75
2023/11/25 00:58:58;;;;;;;21.35;19.70;;;7.60;99.90;;;;;;4991007;28;20031;-75
2023/11/25 01:01:25;;;;;;;20.70;18.77;;;7.60;99.90;;;;;;4991239;28;20045;-75
2023/11/25 01:03:51;;;;;;;21.48;19.60;;;7.40;99.90;;;;;;4991446;28;20061;-75
2023/11/25 01:06:17;;;;;;;21.50;19.80;;;7.30;99.90;;;;;;4991242;28;20030;-74
2023/11/25 01:08:43;;;;;;;22.80;20.70;;;7.20;99.90;;;;;;4992464;28;20035;-75
2023/11/25 01:11:09;;;;;;;20.38;18.77;;;7.20;99.90;;;;;;4990705;28;20042;-74
2023/11/25 01:13:36;;;;;;;23.85;22.00;;;7.10;99.90;;;;;;4991498;28;20037;-76
2023/11/25 01:16:03;;;;;;;23.17;21.33;;;7.10;99.90;;;;;;4990013;28;20395;-75
2023/11/25 01:18:29;;;;;;;23.50;21.00;;;7.10;99.90;;;;;;4989201;28;20037;-74
2023/11/25 01:20:55;;;;;;;19.60;18.13;;;7.10;99.90;;;;;;4991304;28;20038;-75
2023/11/25 01:23:22;;;;;;;20.67;17.43;;;7.10;99.90;;;;;;4993709;28;20055;-75
2023/11/25 01:25:49;;;;;;;23.33;21.27;;;7.30;99.90;;;;;;4992363;28;20599;-74
2023/11/25 01:28:15;;;;;;;24.08;22.15;;;7.30;99.90;;;;;;4995450;28;20030;-75
2023/11/25 01:30:41;;;;;;;30.35;27.88;;;7.40;99.90;;;;;;4992517;28;20505;-75
2023/11/25 01:33:07;;;;;;;29.70;27.57;;;7.40;99.90;;;;;;4994025;28;20499;-74
2023/11/25 01:35:33;;;;;;;29.20;27.20;;;7.30;99.90;;;;;;4994320;28;20022;-75
2023/11/25 01:37:59;;;;;;;40.77;37.97;;;7.10;99.90;;;;;;4994379;28;20049;-74
2023/11/25 01:40:25;;;;;;;26.27;24.30;;;7.10;99.90;;;;;;4995377;28;20026;-75
2023/11/25 01:42:56;;;;;;;38.33;35.53;;;7.10;99.90;;;;;;4994878;28;20046;-74
2023/11/25 01:45:22;;;;;;;25.88;23.85;;;7.00;99.90;;;;;;4975989;28;20050;-75
2023/11/25 01:47:48;;;;;;;42.43;39.87;;;7.00;99.90;;;;;;4995835;28;20457;-69
2023/11/25 01:50:14;;;;;;;33.85;31.48;;;7.00;99.90;;;;;;4994368;28;20030;-70
2023/11/25 01:52:41;;;;;;;28.42;26.52;;;7.00;99.90;;;;;;4989407;28;20448;-70
2023/11/25 01:55:09;;;;;;;19.17;17.57;;;6.90;99.90;;;;;;4983528;28;20037;-70
2023/11/25 01:57:35;;;;;;;23.63;21.53;;;7.00;99.90;;;;;;4993908;28;20038;-70
2023/11/25 02:00:07;;;;;;;25.30;23.02;;;7.00;99.90;;;;;;4992120;28;20045;-70
2023/11/25 02:02:34;;;;;;;20.30;18.15;;;7.00;99.90;;;;;;4992065;28;20057;-70
2023/11/25 02:05:04;;;;;;;54.40;50.77;;;6.90;99.90;;;;;;4992729;28;20045;-69
2023/11/25 02:07:30;;;;;;;39.57;37.07;;;6.90;99.90;;;;;;4994489;28;20471;-69
2023/11/25 02:09:56;;;;;;;41.87;39.23;;;6.80;99.90;;;;;;4991726;28;20034;-70
2023/11/25 02:12:22;;;;;;;46.70;43.65;;;6.80;99.90;;;;;;5009401;28;20042;-70
2023/11/25 02:14:48;;;;;;;35.07;32.43;;;6.90;99.90;;;;;;4994853;28;20038;-69
2023/11/25 02:17:15;;;;;;;15.23;13.83;;;7.10;99.90;;;;;;4993790;28;20038;-69
2023/11/25 02:19:44;;;;;;;25.80;23.73;;;7.20;99.90;;;;;;4994518;28;20468;-70
2023/11/25 02:22:10;;;;;;;23.90;22.08;;;7.20;99.90;;;;;;4991720;28;20403;-69
2023/11/25 02:24:37;;;;;;;15.17;13.57;;;7.30;99.90;;;;;;4992829;28;20054;-69
2023/11/25 02:27:04;;;;;;;42.03;39.15;;;7.30;99.90;;;;;;4992847;28;20030;-70
2023/11/25 02:29:31;;;;;;;35.70;33.22;;;7.40;99.90;;;;;;4992514;28;20045;-69
2023/11/25 02:31:58;;;;;;;35.33;33.17;;;7.50;99.90;;;;;;4990835;28;20475;-69
2023/11/25 02:34:25;;;;;;;43.33;40.63;;;7.50;99.90;;;;;;4991120;28;20030;-70
2023/11/25 02:36:51;;;;;;;48.67;45.47;;;7.50;99.90;;;;;;4993560;28;20041;-70
2023/11/25 02:39:20;;;;;;;49.38;45.97;;;7.60;99.90;;;;;;4993307;28;20037;-70
2023/11/25 02:41:50;;;;;;;47.75;45.03;;;7.60;99.90;;;;;;5005677;28;20050;-70
2023/11/25 02:44:16;;;;;;;50.33;47.13;;;7.60;99.90;;;;;;4977408;28;20031;-69
2023/11/25 02:46:44;;;;;;;47.58;44.97;;;7.50;99.90;;;;;;4984995;28;20037;-70
2023/11/25 02:49:10;;;;;;;46.95;43.88;;;7.50;99.90;;;;;;4977375;28;20388;-69
2023/11/25 02:51:37;;;;;;;37.33;35.07;;;7.40;99.90;;;;;;5001099;28;20033;-69
2023/11/25 02:54:05;;;;;;;32.13;29.88;;;7.30;99.90;;;;;;4985453;28;20395;-70
2023/11/25 02:56:32;;;;;;;31.33;29.05;;;7.30;99.90;;;;;;4993481;28;20026;-69
2023/11/25 02:58:58;;;;;;;32.13;29.75;;;7.30;99.90;;;;;;4991667;28;20045;-70
2023/11/25 03:01:29;;;;;;;36.30;33.93;;;7.20;99.90;;;;;;4992115;28;20483;-70
2023/11/25 03:03:59;;;;;;;41.35;38.50;;;7.20;99.90;;;;;;4986177;28;20467;-69
2023/11/25 03:06:26;;;;;;;41.07;38.47;;;7.20;99.90;;;;;;4991678;28;20038;-75
2023/11/25 03:08:55;;;;;;;21.60;19.87;;;7.20;99.90;;;;;;4991899;28;20054;-74
2023/11/25 03:11:21;;;;;;;20.10;18.53;;;7.10;99.90;;;;;;4992281;28;20030;-75
2023/11/25 03:13:47;;;;;;;27.33;24.93;;;7.10;99.90;;;;;;4992983;28;20034;-75
2023/11/25 03:16:14;;;;;;;27.93;26.03;;;7.00;99.90;;;;;;4992041;28;20037;-75
2023/11/25 03:18:40;;;;;;;33.03;30.70;;;7.00;99.90;;;;;;4992260;28;20045;-74
2023/11/25 03:21:08;;;;;;;35.47;32.97;;;6.90;99.90;;;;;;4993314;28;20034;-74
2023/11/25 03:23:36;;;;;;;35.67;33.57;;;6.80;99.90;;;;;;4991944;28;20054;-75
2023/11/25 03:26:10;;;;;;;44.00;41.20;;;6.60;99.90;;;;;;4984999;28;20055;-75
2023/11/25 03:28:36;;;;;;;51.77;48.70;;;6.50;99.90;;;;;;4986758;28;20046;-75
2023/11/25 03:31:04;;;;;;;39.77;37.27;;;6.30;99.90;;;;;;4982746;28;20035;-75
2023/11/25 03:33:31;;;;;;;51.70;48.53;;;6.40;99.90;;;;;;4993996;28;20042;-75
2023/11/25 03:35:57;;;;;;;50.43;47.67;;;6.50;99.90;;;;;;4976925;28;20340;-75
2023/11/25 03:38:23;;;;;;;44.73;42.30;;;6.60;99.90;;;;;;4988273;28;20042;-75
2023/11/25 03:40:51;;;;;;;46.93;44.03;;;6.70;99.90;;;;;;4991115;28;20030;-75
2023/11/25 03:43:17;;;;;;;48.30;45.47;;;6.80;99.90;;;;;;4992982;28;20158;-74
2023/11/25 03:45:43;;;;;;;40.67;38.27;;;6.90;99.90;;;;;;4990546;28;20488;-74
2023/11/25 03:48:09;;;;;;;57.55;53.97;;;6.80;99.90;;;;;;4992891;28;20038;-75
2023/11/25 03:50:35;;;;;;;44.17;41.40;;;6.80;99.90;;;;;;4991294;28;20034;-75
2023/11/25 03:53:02;;;;;;;40.70;38.10;;;6.80;99.90;;;;;;4991902;28;20050;-74
2023/11/25 03:55:28;;;;;;;51.40;48.13;;;6.80;99.90;;;;;;4978041;28;20050;-74
2023/11/25 03:57:54;;;;;;;46.30;43.37;;;6.70;99.90;;;;;;4992949;28;20480;-75
2023/11/25 04:00:22;;;;;;;48.77;45.73;;;6.70;99.90;;;;;;4984874;28;20035;-74
2023/11/25 04:02:48;;;;;;;39.43;37.17;;;6.70;99.90;;;;;;4983537;28;20034;-74
2023/11/25 04:05:16;;;;;;;37.20;35.00;;;6.70;99.90;;;;;;4992091;28;20034;-75
2023/11/25 04:07:43;;;;;;;32.60;30.60;;;6.70;99.90;;;;;;4991975;28;20038;-74
2023/11/25 04:10:13;;;;;;;39.60;36.90;;;6.70;99.90;;;;;;4992149;28;20058;-75
2023/11/25 04:12:42;;;;;;;41.30;39.00;;;6.70;99.90;;;;;;4991658;28;20046;-74
2023/11/25 04:15:10;;;;;;;43.60;41.03;;;6.70;99.90;;;;;;4990584;28;20057;-68
2023/11/25 04:17:37;;;;;;;32.30;30.03;;;6.60;99.90;;;;;;4972078;28;20030;-69
2023/11/25 04:20:12;;;;;;;33.40;31.40;;;6.60;99.90;;;;;;4978209;28;20034;-69
2023/11/25 04:22:45;;;;;;;26.80;24.70;;;6.50;99.90;;;;;;4992002;28;20046;-70
2023/11/25 04:25:12;;;;;;;24.90;22.70;;;6.50;99.90;;;;;;4979622;28;20049;-69
2023/11/25 04:27:42;;;;;;;54.27;51.20;;;6.40;99.90;;;;;;4991510;28;20038;-69
2023/11/25 04:30:09;;;;;;;27.48;25.33;;;6.40;99.90;;;;;;4991492;28;20034;-69
2023/11/25 04:32:39;;;;;;;18.90;17.33;;;6.40;99.90;;;;;;4971723;28;20046;-69
2023/11/25 04:35:06;;;;;;;14.68;12.48;;;6.40;99.90;;;;;;4983940;28;20041;-69
2023/11/25 04:37:37;;;;;;;15.67;13.63;;;6.30;99.90;;;;;;5007216;28;20022;-69
2023/11/25 04:40:07;;;;;;;21.63;19.80;;;6.30;99.90;;;;;;4974371;28;20039;-70
2023/11/25 04:42:33;;;;;;;19.55;18.00;;;6.30;99.90;;;;;;4990314;28;20046;-69
2023/11/25 04:44:59;;;;;;;23.60;21.90;;;6.30;99.90;;;;;;4991940;28;20502;-69
2023/11/25 04:47:26;;;;;;;19.17;18.07;;;6.30;99.90;;;;;;4980082;28;20039;-69
2023/11/25 04:49:53;;;;;;;20.80;19.17;;;6.30;99.90;;;;;;4972941;28;20030;-70
2023/11/25 04:52:20;;;;;;;18.03;16.43;;;6.20;99.90;;;;;;4989989;28;20038;-70
2023/11/25 04:54:46;;;;;;;14.33;13.03;;;6.20;99.90;;;;;;4985699;28;20060;-69
2023/11/25 04:57:13;;;;;;;575.97;60.77;;;6.10;99.90;;;;;;4991538;28;20403;-69
2023/11/25 04:59:39;;;;;;;20.47;16.70;;;6.20;99.90;;;;;;4996137;28;20046;-70
2023/11/25 05:02:06;;;;;;;19.80;18.07;;;6.20;99.90;;;;;;4994986;28;20038;-69
2023/11/25 05:04:33;;;;;;;19.30;17.43;;;6.20;99.90;;;;;;4994749;28;20479;-69
2023/11/25 05:06:59;;;;;;;17.20;15.43;;;6.20;99.90;;;;;;4995209;28;20061;-69
2023/11/25 05:09:26;;;;;;;16.83;15.33;;;6.20;99.90;;;;;;4993994;28;20034;-69
2023/11/25 05:11:53;;;;;;;16.53;15.13;;;6.10;99.90;;;;;;4993799;28;20046;-69
2023/11/25 05:14:19;;;;;;;132.63;33.70;;;6.10;99.90;;;;;;4990824;28;20038;-69
2023/11/25 05:16:46;;;;;;;27.30;25.37;;;6.10;99.90;;;;;;4998660;28;20031;-69
2023/11/25 05:19:13;;;;;;;22.13;20.40;;;6.00;99.90;;;;;;4990107;28;20398;-69
2023/11/25 05:21:39;;;;;;;23.10;21.40;;;6.00;99.90;;;;;;4995251;28;20041;-70
2023/11/25 05:24:05;;;;;;;25.53;23.80;;;5.90;99.90;;;;;;5008663;28;20061;-69
2023/11/25 05:26:31;;;;;;;159.20;24.83;;;5.90;99.90;;;;;;5014906;28;20042;-69
2023/11/25 05:28:59;;;;;;;82.73;19.63;;;6.00;99.90;;;;;;5013864;28;20037;-69
2023/11/25 05:31:26;;;;;;;21.97;20.27;;;6.00;99.90;;;;;;4997981;28;20057;-74
2023/11/25 05:33:52;;;;;;;22.73;20.80;;;6.00;99.90;;;;;;5013415;28;20045;-74
2023/11/25 05:36:18;;;;;;;21.37;19.70;;;6.00;99.90;;;;;;5014608;28;20032;-75
2023/11/25 05:38:44;;;;;;;20.57;18.63;;;5.90;99.90;;;;;;5000923;28;20030;-74
2023/11/25 05:41:13;;;;;;;18.17;17.03;;;5.90;99.90;;;;;;5005579;28;20034;-74
2023/11/25 05:43:40;;;;;;;17.93;16.30;;;5.80;99.90;;;;;;4995736;28;20054;-74
2023/11/25 05:46:06;;;;;;;19.17;17.40;;;5.80;99.90;;;;;;5013774;28;20499;-74
2023/11/25 05:48:32;;;;;;;19.10;17.53;;;5.80;99.90;;;;;;5001463;28;20041;-74
2023/11/25 05:50:58;;;;;;;19.67;17.97;;;5.80;99.90;;;;;;5014674;28;20033;-75
2023/11/25 05:53:24;;;;;;;19.33;17.37;;;5.80;99.90;;;;;;5000292;28;20064;-75
2023/11/25 05:55:50;;;;;;;21.43;16.57;;;5.80;99.90;;;;;;4994560;28;20038;-74
2023/11/25 05:58:17;;;;;;;17.83;16.27;;;5.70;99.90;;;;;;4995545;28;20031;-75
2023/11/25 06:00:43;;;;;;;28.70;18.50;;;5.70;99.90;;;;;;4994343;28;20030;-75
2023/11/25 06:03:09;;;;;;;19.70;17.90;;;5.80;99.90;;;;;;4995353;28;20065;-73
2023/11/25 06:05:35;;;;;;;18.07;16.40;;;5.80;99.90;;;;;;4994260;28;20030;-74
2023/11/25 06:08:01;;;;;;;18.30;16.70;;;5.80;99.90;;;;;;4993527;28;20394;-75
2023/11/25 06:10:27;;;;;;;21.53;19.67;;;5.70;99.90;;;;;;4993743;28;20034;-74
2023/11/25 06:12:53;;;;;;;24.67;22.57;;;5.60;99.90;;;;;;4995252;28;20049;-74
2023/11/25 06:15:20;;;;;;;19.93;18.40;;;5.50;99.90;;;;;;4994061;28;20407;-71
2023/11/25 06:17:46;;;;;;;28.33;26.00;;;5.50;99.90;;;;;;4988298;28;20057;-75
2023/11/25 06:20:13;;;;;;;16.30;14.67;;;6.00;99.90;;;;;;5013361;28;20476;-74
2023/11/25 06:22:41;;;;;;;17.30;15.07;;;6.00;99.90;;;;;;4995405;28;20086;-74
2023/11/25 06:25:08;;;;;;;477.47;41.53;;;5.90;99.90;;;;;;4994755;28;20483;-74
2023/11/25 06:27:34;;;;;;;378.67;35.37;;;5.90;99.90;;;;;;4994754;28;20054;-75
2023/11/25 06:30:00;;;;;;;16.80;14.93;;;5.90;99.90;;;;;;5001824;28;20399;-75
2023/11/25 06:32:27;;;;;;;17.87;16.27;;;5.80;99.90;;;;;;5012236;28;20399;-75
2023/11/25 06:34:56;;;;;;;19.60;17.73;;;5.80;99.90;;;;;;5014174;28;20076;-70
2023/11/25 06:37:23;;;;;;;20.83;19.17;;;5.70;99.90;;;;;;5001720;28;20035;-70
2023/11/25 06:39:49;;;;;;;22.77;20.90;;;5.70;99.90;;;;;;4993141;28;20038;-70
2023/11/25 06:42:16;;;;;;;100.70;24.03;;;5.60;99.90;;;;;;4992670;28;20361;-70
2023/11/25 06:44:44;;;;;;;22.90;21.07;;;5.60;99.90;;;;;;4998658;28;20069;-70
2023/11/25 06:47:11;;;;;;;20.23;18.43;;;5.60;99.90;;;;;;5013202;28;20042;-70
2023/11/25 06:49:37;;;;;;;21.47;19.70;;;5.50;99.90;;;;;;5001318;28;20058;-71
2023/11/25 06:52:04;;;;;;;20.47;19.00;;;5.60;99.90;;;;;;4993811;28;20396;-70
2023/11/25 06:54:31;;;;;;;23.27;21.53;;;5.60;99.90;;;;;;4996019;28;20053;-70
2023/11/25 06:56:57;;;;;;;22.67;21.07;;;5.50;99.90;;;;;;5012248;28;20026;-70
2023/11/25 06:59:23;;;;;;;24.83;22.67;;;5.40;99.90;;;;;;5013647;28;20029;-70
2023/11/25 07:01:50;;;;;;;26.27;24.17;;;5.40;99.90;;;;;;5013215;28;20026;-70
2023/11/25 07:04:18;;;;;;;26.60;24.30;;;5.40;99.90;;;;;;5012034;28;20514;-70
2023/11/25 07:06:44;;;;;;;25.77;23.67;;;5.30;99.90;;;;;;4975204;28;20034;-74
2023/11/25 07:09:13;;;;;;;18.03;16.23;;;5.30;99.90;;;;;;4991631;28;20037;-71
2023/11/25 07:11:40;;;;;;;78.93;17.30;;;5.40;99.90;;;;;;4992307;28;20027;-70
2023/11/25 07:14:06;;;;;;;501.73;42.77;;;5.40;99.90;;;;;;4993763;28;20037;-70
2023/11/25 07:16:33;;;;;;;16.57;15.17;;;5.40;99.90;;;;;;5011624;28;20380;-70
2023/11/25 07:19:00;;;;;;;18.33;16.47;;;5.30;99.90;;;;;;4995655;28;20085;-70
2023/11/25 07:21:26;;;;;;;19.57;17.77;;;5.20;99.90;;;;;;4993794;28;20046;-70
2023/11/25 07:23:53;;;;;;;20.00;18.13;;;5.20;99.90;;;;;;4993096;28;20502;-70
2023/11/25 07:26:19;;;;;;;69.57;17.70;;;5.20;99.90;;;;;;4992418;28;20047;-70
2023/11/25 07:28:45;;;;;;;17.17;15.47;;;5.20;99.90;;;;;;4992344;28;20042;-70
2023/11/25 07:31:11;;;;;;;84.77;19.03;;;5.20;99.90;;;;;;4991062;28;20034;-70
2023/11/25 07:33:37;;;;;;;16.80;15.17;;;5.20;99.90;;;;;;4988158;28;20483;-70
2023/11/25 07:36:03;;;;;;;20.03;16.37;;;5.20;99.90;;;;;;4990318;28;20035;-70
2023/11/25 07:38:29;;;;;;;19.93;17.50;;;5.20;99.90;;;;;;4982987;28;20396;-70
2023/11/25 07:40:55;;;;;;;19.03;17.03;;;5.20;99.90;;;;;;4986574;28;20030;-70
2023/11/25 07:43:24;;;;;;;17.90;15.83;;;5.10;99.90;;;;;;4990757;28;20050;-70
2023/11/25 07:45:50;;;;;;;17.57;15.87;;;5.10;99.90;;;;;;4990667;28;20034;-70
2023/11/25 07:48:17;;;;;;;18.77;15.57;;;5.10;99.90;;;;;;4987181;28;20034;-70
2023/11/25 07:50:45;;;;;;;21.03;18.80;;;5.10;99.90;;;;;;4980849;28;20027;-71
2023/11/25 07:53:14;;;;;;;19.87;15.87;;;5.10;99.90;;;;;;4987319;28;20034;-70
2023/11/25 07:55:40;;;;;;;22.57;20.53;;;5.10;99.90;;;;;;4972813;28;20027;-72
2023/11/25 07:58:07;;;;;;;23.97;18.67;;;5.10;99.90;;;;;;4976832;28;20074;-75
2023/11/25 08:00:33;;;;;;;17.53;15.83;;;5.30;99.90;;;;;;4973060;28;20027;-74
2023/11/25 08:02:59;;;;;;;19.13;17.43;;;5.30;99.90;;;;;;4978597;28;20034;-74
2023/11/25 08:05:25;;;;;;;21.03;19.13;;;5.30;99.90;;;;;;4981442;28;20034;-75
2023/11/25 08:07:52;;;;;;;16.60;15.00;;;5.30;99.90;;;;;;5008952;28;20029;-75
2023/11/25 08:10:19;;;;;;;19.93;18.13;;;5.30;99.90;;;;;;5012037;28;20029;-75
2023/11/25 08:12:46;;;;;;;20.87;18.03;;;5.20;99.90;;;;;;5012624;28;20040;-74
2023/11/25 08:15:15;;;;;;;19.57;17.57;;;5.30;99.90;;;;;;5005973;28;20026;-76
2023/11/25 08:17:42;;;;;;;17.13;15.47;;;5.30;99.90;;;;;;4972299;28;20035;-74
2023/11/25 08:20:10;;;;;;;16.53;14.93;;;5.30;99.90;;;;;;4979414;28;20038;-75
2023/11/25 08:22:39;;;;;;;16.00;14.57;;;5.30;99.90;;;;;;4992230;28;20054;-75
2023/11/25 08:25:07;;;;;;;16.87;15.17;;;5.40;99.90;;;;;;4988247;28;20042;-75
2023/11/25 08:27:34;;;;;;;16.10;14.60;;;5.30;99.90;;;;;;5011291;28;20049;-75
2023/11/25 08:30:00;;;;;;;22.17;15.03;;;5.40;99.90;;;;;;5012160;28;20368;-75
2023/11/25 08:32:26;;;;;;;17.67;15.07;;;5.40;99.90;;;;;;5011129;28;20420;-75
2023/11/25 08:34:53;;;;;;;17.97;15.87;;;5.40;99.90;;;;;;5009380;28;20033;-74
2023/11/25 08:37:24;;;;;;;16.50;14.83;;;5.40;99.90;;;;;;4992072;28;20046;-74
2023/11/25 08:39:52;;;;;;;18.50;16.53;;;5.40;99.90;;;;;;4992891;28;20047;-74
2023/11/25 08:42:18;;;;;;;21.07;19.20;;;5.50;99.90;;;;;;4992795;28;20034;-74
2023/11/25 08:44:45;;;;;;;153.77;26.93;;;5.50;99.90;;;;;;4992748;28;20065;-75
2023/11/25 08:47:12;;;;;;;21.67;19.40;;;5.50;99.90;;;;;;4994565;28;20062;-73
2023/11/25 08:49:38;;;;;;;24.50;22.37;;;5.60;99.90;;;;;;4986849;28;20471;-74
2023/11/25 08:52:04;;;;;;;20.57;18.70;;;5.70;99.90;;;;;;4987194;28;20031;-74
2023/11/25 08:54:36;;;;;;;21.20;19.30;;;5.70;99.90;;;;;;4992437;28;20492;-73
2023/11/25 08:57:03;;;;;;;20.03;18.03;;;5.70;99.90;;;;;;5007152;28;20050;-74
2023/11/25 08:59:31;;;;;;;20.33;18.57;;;5.80;99.90;;;;;;5011594;28;20042;-74
2023/11/25 09:01:58;;;;;;;21.07;19.00;;;5.80;99.90;;;;;;5007199;28;20410;-70
2023/11/25 09:04:25;;;;;;;22.47;20.30;;;5.90;99.90;;;;;;4991569;28;20065;-71
2023/11/25 09:06:52;;;;;;;30.30;27.77;;;6.00;99.90;;;;;;4991515;28;20030;-70
2023/11/25 09:09:19;;;;;;;25.23;23.17;;;6.00;99.90;;;;;;4990692;28;20045;-70
2023/11/25 09:11:47;;;;;;;24.80;22.80;;;6.00;99.90;;;;;;4993426;28;20045;-70
2023/11/25 09:14:16;;;;;;;26.27;23.73;;;6.10;99.90;;;;;;4992344;28;20049;-70
2023/11/25 09:16:43;;;;;;;24.27;21.77;;;6.10;99.90;;;;;;4994909;28;20062;-70
2023/11/25 09:19:09;;;;;;;31.23;28.93;;;6.20;99.90;;;;;;4991996;28;20023;-70
2023/11/25 09:21:35;;;;;;;33.23;30.40;;;6.10;99.90;;;;;;5000307;28;20394;-70
2023/11/25 09:24:01;;;;;;;28.33;26.00;;;6.10;99.90;;;;;;5008793;28;20050;-70
2023/11/25 09:26:27;;;;;;;30.93;28.37;;;6.20;99.90;;;;;;4990768;28;20400;-71
2023/11/25 09:28:54;;;;;;;31.90;29.38;;;6.30;99.90;;;;;;5003534;28;20035;-70
2023/11/25 09:31:21;;;;;;;38.17;35.47;;;6.50;99.90;;;;;;4984373;28;20447;-71
2023/11/25 09:33:47;;;;;;;29.77;27.23;;;6.80;99.90;;;;;;4994856;28;20027;-70
2023/11/25 09:36:13;;;;;;;17.58;15.77;;;6.90;99.90;;;;;;5005359;28;20399;-71
2023/11/25 09:38:39;;;;;;;20.15;18.33;;;6.80;99.90;;;;;;5009253;28;20046;-70
2023/11/25 09:41:05;;;;;;;19.08;17.38;;;6.60;99.90;;;;;;5007907;28;20481;-71
2023/11/25 09:43:31;;;;;;;25.70;23.50;;;6.60;99.90;;;;;;4975833;28;20496;-70
2023/11/25 09:45:57;;;;;;;25.67;23.50;;;6.70;99.90;;;;;;4993549;28;20110;-70
2023/11/25 09:48:24;;;;;;;26.48;24.25;;;6.90;99.90;;;;;;4991577;28;20476;-71
2023/11/25 09:50:50;;;;;;;24.70;22.38;;;7.00;99.90;;;;;;4993652;28;20038;-70
2023/11/25 09:53:22;;;;;;;56.30;51.97;;;7.20;99.90;;;;;;4993652;28;20379;-70
2023/11/25 09:56:00;;;;;;;34.55;31.75;;;7.30;99.90;;;;;;4994821;28;20026;-70
2023/11/25 09:58:27;;;;;;;29.65;27.23;;;7.40;99.90;;;;;;4994036;28;20375;-70
2023/11/25 10:00:53;;;;;;;29.52;27.27;;;7.70;99.90;;;;;;4996378;28;20038;-70
2023/11/25 10:03:19;;;;;;;28.00;26.27;;;7.70;99.90;;;;;;5002683;28;20064;-66
2023/11/25 10:05:46;;;;;;;30.85;28.63;;;8.30;99.90;;;;;;4985522;28;20027;-66
2023/11/25 10:08:12;;;;;;;28.30;26.05;;;8.90;99.90;;;;;;4994252;28;20026;-66
2023/11/25 10:10:38;;;;;;;23.63;20.45;;;9.20;99.90;;;;;;4994644;28;20031;-66
2023/11/25 10:13:10;;;;;;;33.15;30.20;;;9.40;99.90;;;;;;4995513;28;20482;-73
2023/11/25 10:15:45;;;;;;;39.70;36.72;;;9.50;99.90;;;;;;4992597;28;20049;-74
2023/11/25 10:18:13;;;;;;;42.58;39.33;;;9.40;99.90;;;;;;4994821;28;20049;-74
2023/11/25 10:20:43;;;;;;;50.88;47.58;;;9.40;99.90;;;;;;4994823;28;20038;-74
2023/11/25 10:23:09;;;;;;;40.50;37.30;;;9.50;99.90;;;;;;4994949;28;20041;-74
2023/11/25 10:25:36;;;;;;;40.13;37.63;;;9.50;99.90;;;;;;4997487;28;20406;-73
2023/11/25 10:28:02;;;;;;;42.60;40.08;;;9.40;99.90;;;;;;4991146;28;20058;-74
2023/11/25 10:30:28;;;;;;;57.97;54.53;;;9.30;99.90;;;;;;4986731;28;20046;-74
2023/11/25 10:32:56;;;;;;;52.28;49.38;;;9.40;99.90;;;;;;4994158;28;20046;-74
2023/11/25 10:35:25;;;;;;;26.85;24.17;;;9.40;99.90;;;;;;5001719;28;20042;-74
2023/11/25 10:37:51;;;;;;;43.45;40.75;;;9.60;99.90;;;;;;4995938;28;20401;-74
2023/11/25 10:40:17;;;;;;;56.53;53.15;;;9.80;99.90;;;;;;4994411;28;20038;-74
2023/11/25 10:42:47;;;;;;;48.70;45.05;;;10.00;99.90;;;;;;4989418;28;20038;-73
2023/11/25 10:45:17;;;;;;;57.72;54.33;;;9.90;99.90;;;;;;4987903;28;20057;-73
2023/11/25 10:47:43;;;;;;;77.68;72.95;;;10.00;99.90;;;;;;4977380;28;20046;-73
2023/11/25 10:50:15;;;;;;;55.03;51.97;;;10.00;99.90;;;;;;4974967;28;20030;-75
2023/11/25 10:52:44;;;;;;;53.85;50.42;;;9.80;99.90;;;;;;4977319;28;20035;-74
2023/11/25 10:55:10;;;;;;;72.43;68.15;;;9.90;99.90;;;;;;4989546;28;20045;-74
2023/11/25 10:57:37;;;;;;;68.82;64.90;;;9.90;99.90;;;;;;4991525;28;20570;-73
2023/11/25 11:00:10;;;;;;;57.22;53.72;;;9.90;99.90;;;;;;4993976;28;20065;-72
2023/11/25 11:02:54;;;;;;;89.10;83.57;;;9.90;99.90;;;;;;4993987;28;20042;-72
2023/11/25 11:05:45;;;;;;;50.00;46.58;;;10.00;99.90;;;;;;4995123;28;20442;-72
2023/11/25 11:08:20;;;;;;;63.20;59.50;;;10.10;99.90;;;;;;4999965;28;20364;-72
2023/11/25 11:10:50;;;;;;;46.92;43.63;;;10.20;99.90;;;;;;4995666;28;20050;-72
2023/11/25 11:13:20;;;;;;;58.35;54.75;;;10.00;99.90;;;;;;4992938;28;20042;-72
2023/11/25 11:15:46;;;;;;;115.55;109.32;;;10.00;99.90;;;;;;4991896;28;20064;-65
2023/11/25 11:18:18;;;;;;;78.72;74.07;;;10.00;99.90;;;;;;4996374;28;20491;-65
2023/11/25 11:20:50;;;;;;;130.57;123.72;;;10.10;99.90;;;;;;4977183;28;20384;-65
2023/11/25 11:23:19;;;;;;;65.28;61.47;;;10.10;99.90;;;;;;4992116;28;20042;-65
2023/11/25 11:25:45;;;;;;;70.82;67.00;;;10.20;99.90;;;;;;4991975;28;20049;-65
2023/11/25 11:28:43;;;;;;;100.75;95.10;;;10.20;99.90;;;;;;5007092;28;20041;-65
2023/11/25 11:31:40;;;;;;;72.90;68.22;;;10.40;99.90;;;;;;5004834;28;20054;-65
2023/11/25 11:34:07;;;;;;;62.80;59.08;;;10.40;99.90;;;;;;4983378;28;20023;-65
2023/11/25 11:36:33;;;;;;;55.60;52.28;;;10.30;99.90;;;;;;4991077;28;20026;-66
2023/11/25 11:39:01;;;;;;;60.58;56.72;;;10.20;99.90;;;;;;4991772;28;20031;-66
2023/11/25 11:41:30;;;;;;;68.40;64.43;;;10.10;99.90;;;;;;4993992;28;20027;-65
2023/11/25 11:44:03;;;;;;;59.75;56.38;;;10.10;99.90;;;;;;4987350;28;20034;-65
2023/11/25 11:46:29;;;;;;;55.35;52.05;;;10.00;99.90;;;;;;4985876;28;20049;-66
2023/11/25 11:48:55;;;;;;;60.83;57.20;;;10.00;99.90;;;;;;4991581;28;20034;-65
2023/11/25 11:51:25;;;;;;;56.92;53.63;;;9.80;99.90;;;;;;4992651;28;20037;-65
2023/11/25 11:54:20;;;;;;;65.22;61.30;;;9.80;99.90;;;;;;4991396;28;20037;-65
2023/11/25 11:57:00;;;;;;;69.03;65.18;;;10.00;99.90;;;;;;4991809;28;20034;-65
2023/11/25 11:59:58;;;;;;;54.63;51.17;;;10.10;99.90;;;;;;4986922;28;20030;-65
2023/11/25 12:02:28;;;;;;;63.55;60.20;;;10.20;99.90;;;;;;4987486;28;20038;-65
2023/11/25 12:04:56;;;;;;;63.50;59.92;;;10.30;99.90;;;;;;4978159;28;20053;-65
2023/11/25 12:07:23;;;;;;;60.53;56.95;;;10.40;99.90;;;;;;4980152;28;20030;-65
2023/11/25 12:09:49;;;;;;;1999.90;999.90;;;10.40;99.90;;;;;;4990548;28;20037;-65
2023/11/25 12:12:15;;;;;;;120.93;114.65;;;10.60;99.90;;;;;;4989915;28;20031;-65
2023/11/25 12:14:42;;;;;;;1999.90;999.90;;;10.80;99.90;;;;;;4978441;28;20384;-65
2023/11/25 12:17:08;;;;;;;1999.90;999.90;;;10.90;99.90;;;;;;4989103;28;20035;-65
2023/11/25 12:19:34;;;;;;;1999.90;999.90;;;10.80;99.90;;;;;;5000918;28;20034;-65
2023/11/25 12:22:00;;;;;;;1999.90;999.90;;;10.80;99.90;;;;;;4989364;28;20034;-72
2023/11/25 12:24:26;;;;;;;1999.90;999.90;;;10.70;99.90;;;;;;4983742;28;20051;-72
2023/11/25 12:26:53;;;;;;;1999.90;999.90;;;10.60;99.90;;;;;;4984729;28;20030;-72
2023/11/25 12:29:22;;;;;;;1999.90;999.90;;;10.80;99.90;;;;;;4977747;28;20140;-68
2023/11/25 12:31:49;;;;;;;1999.90;999.90;;;10.60;99.90;;;;;;4983718;28;20053;-66
2023/11/25 12:34:15;;;;;;;1999.90;999.90;;;10.50;99.90;;;;;;4991535;28;20042;-66